Terminal Aerodrome Forecast
Issued by NWS Mt. Holly, NJ

Home | Current Version | Previous Version | Text Only | Print | Product List | Glossary On
Versions: 1 2 3 4 5 6 7 8 9 10 11 12 13 14 15 16 17 18 19 20 21 22 23 24 25 26 27 28 29 30 31 32
000
FTAK31 PANC 011139
TAFABE
TAF
PABE 011139Z 0112/0212 23010KT P6SM SCT025 SCT040 BKN080
      WS020/25035KT
     FM011400 22012G25KT P6SM FEW008 BKN025 OVC060
     FM011800 22018G30KT 6SM BR SCT008 BKN015 OVC025
     FM020000 22014G24KT 5SM BR BKN008 OVC015
     FM020900 23014KT P6SM OVC007=

USA.gov is the U.S. government's official web portal to all federal, state and local government web resources and services.